sensor_id;sensor_type;location;lat;lon;timestamp;pressure;altitude;pressure_sealevel;temperature;humidity
64616;BME280;51027;42.162;24.754;2024-01-10T00:01:40;101034.97;;;-0.72;100.00
64616;BME280;51027;42.162;24.754;2024-01-10T00:04:06;101056.50;;;-0.73;100.00
64616;BME280;51027;42.162;24.754;2024-01-10T00:06:31;101044.59;;;-0.68;100.00
64616;BME280;51027;42.162;24.754;2024-01-10T00:08:57;101057.06;;;-0.53;100.00
64616;BME280;51027;42.162;24.754;2024-01-10T00:11:22;101048.91;;;-0.37;100.00
64616;BME280;51027;42.162;24.754;2024-01-10T00:13:48;100994.25;;;-0.80;100.00
64616;BME280;51027;42.162;24.754;2024-01-10T00:16:14;101045.13;;;-0.79;100.00
64616;BME280;51027;42.162;24.754;2024-01-10T00:18:39;101051.78;;;-0.57;100.00
64616;BME280;51027;42.162;24.754;2024-01-10T00:21:08;101058.44;;;-0.34;100.00
64616;BME280;51027;42.162;24.754;2024-01-10T00:23:33;101058.41;;;-0.67;100.00
64616;BME280;51027;42.162;24.754;2024-01-10T00:25:59;101058.97;;;-0.47;100.00
64616;BME280;51027;42.162;24.754;2024-01-10T00:28:25;101053.00;;;-0.75;100.00
64616;BME280;51027;42.162;24.754;2024-01-10T00:30:51;101047.41;;;-0.60;100.00
64616;BME280;51027;42.162;24.754;2024-01-10T00:33:16;101067.84;;;-0.38;100.00
64616;BME280;51027;42.162;24.754;2024-01-10T00:35:42;101068.19;;;-0.25;100.00
64616;BME280;51027;42.162;24.754;2024-01-10T00:38:08;101040.25;;;-0.37;100.00
64616;BME280;51027;42.162;24.754;2024-01-10T00:40:34;101056.50;;;-0.73;100.00
64616;BME280;51027;42.162;24.754;2024-01-10T00:42:59;101065.94;;;-0.75;100.00
64616;BME280;51027;42.162;24.754;2024-01-10T00:45:25;101040.53;;;-0.60;100.00
64616;BME280;51027;42.162;24.754;2024-01-10T00:47:50;101061.94;;;-0.64;100.00
64616;BME280;51027;42.162;24.754;2024-01-10T00:50:16;101068.81;;;-0.34;100.00
64616;BME280;51027;42.162;24.754;2024-01-10T00:52:45;101076.00;;;-0.22;100.00
64616;BME280;51027;42.162;24.754;2024-01-10T00:55:11;101067.50;;;-0.18;100.00
64616;BME280;51027;42.162;24.754;2024-01-10T00:57:36;101071.19;;;-0.42;100.00
64616;BME280;51027;42.162;24.754;2024-01-10T01:00:07;101072.00;;;-0.43;100.00
64616;BME280;51027;42.162;24.754;2024-01-10T01:02:33;101079.91;;;-0.38;100.00
64616;BME280;51027;42.162;24.754;2024-01-10T01:04:58;101078.50;;;0.06;100.00
64616;BME280;51027;42.162;24.754;2024-01-10T01:07:24;101069.91;;;0.09;100.00
64616;BME280;51027;42.162;24.754;2024-01-10T01:09:49;101067.16;;;0.01;100.00
64616;BME280;51027;42.162;24.754;2024-01-10T01:12:15;101064.25;;;-0.43;100.00
64616;BME280;51027;42.162;24.754;2024-01-10T01:14:41;101064.22;;;-0.11;100.00
64616;BME280;51027;42.162;24.754;2024-01-10T01:17:06;101066.44;;;-0.26;100.00
64616;BME280;51027;42.162;24.754;2024-01-10T01:19:32;101075.31;;;-0.48;100.00
64616;BME280;51027;42.162;24.754;2024-01-10T01:21:57;101079.53;;;-0.20;100.00
64616;BME280;51027;42.162;24.754;2024-01-10T01:24:23;101078.56;;;-0.24;100.00
64616;BME280;51027;42.162;24.754;2024-01-10T01:26:48;101041.66;;;-0.50;100.00
64616;BME280;51027;42.162;24.754;2024-01-10T01:29:14;101078.00;;;-0.75;100.00
64616;BME280;51027;42.162;24.754;2024-01-10T01:31:39;101075.31;;;-0.48;100.00
64616;BME280;51027;42.162;24.754;2024-01-10T01:34:05;101075.25;;;-0.20;100.00
64616;BME280;51027;42.162;24.754;2024-01-10T01:36:30;101065.81;;;-0.49;100.00
64616;BME280;51027;42.162;24.754;2024-01-10T01:38:55;101075.16;;;-0.84;100.00
64616;BME280;51027;42.162;24.754;2024-01-10T01:41:21;101080.34;;;-0.21;100.00
64616;BME280;51027;42.162;24.754;2024-01-10T01:43:46;101073.06;;;-0.36;100.00
64616;BME280;51027;42.162;24.754;2024-01-10T01:46:12;101076.50;;;-0.37;100.00
64616;BME280;51027;42.162;24.754;2024-01-10T01:48:38;101071.72;;;-0.53;100.00
64616;BME280;51027;42.162;24.754;2024-01-10T01:51:07;101011.34;;;-0.85;100.00
64616;BME280;51027;42.162;24.754;2024-01-10T01:53:35;101072.06;;;-0.41;100.00
64616;BME280;51027;42.162;24.754;2024-01-10T01:56:05;101070.03;;;-0.51;100.00
64616;BME280;51027;42.162;24.754;2024-01-10T01:58:31;101068.75;;;-0.36;100.00
64616;BME280;51027;42.162;24.754;2024-01-10T02:00:56;101063.84;;;-0.26;100.00
64616;BME280;51027;42.162;24.754;2024-01-10T02:03:23;101058.66;;;-0.26;100.00
64616;BME280;51027;42.162;24.754;2024-01-10T02:05:49;101061.81;;;-0.38;100.00
64616;BME280;51027;42.162;24.754;2024-01-10T02:08:15;101057.81;;;-0.25;100.00
64616;BME280;51027;42.162;24.754;2024-01-10T02:10:40;101053.75;;;-0.16;100.00
64616;BME280;51027;42.162;24.754;2024-01-10T02:13:06;101043.66;;;-0.07;100.00
64616;BME280;51027;42.162;24.754;2024-01-10T02:15:35;101041.94;;;-0.06;100.00
64616;BME280;51027;42.162;24.754;2024-01-10T02:18:00;101033.34;;;-0.38;100.00
64616;BME280;51027;42.162;24.754;2024-01-10T02:20:26;101043.44;;;-0.14;100.00
64616;BME280;51027;42.162;24.754;2024-01-10T02:22:52;101043.50;;;-0.11;100.00
64616;BME280;51027;42.162;24.754;2024-01-10T02:25:17;101049.66;;;-0.08;100.00
64616;BME280;51027;42.162;24.754;2024-01-10T02:27:43;101041.66;;;-0.17;100.00
64616;BME280;51027;42.162;24.754;2024-01-10T02:30:09;101021.69;;;-0.21;100.00
64616;BME280;51027;42.162;24.754;2024-01-10T02:32:35;101037.78;;;0.01;100.00
64616;BME280;51027;42.162;24.754;2024-01-10T02:35:01;101041.31;;;0.04;100.00
64616;BME280;51027;42.162;24.754;2024-01-10T02:37:27;101031.66;;;-0.02;100.00
64616;BME280;51027;42.162;24.754;2024-01-10T02:39:52;101039.81;;;0.12;100.00
64616;BME280;51027;42.162;24.754;2024-01-10T02:42:18;101025.63;;;-0.02;100.00
64616;BME280;51027;42.162;24.754;2024-01-10T02:44:44;101046.69;;;0.12;100.00
64616;BME280;51027;42.162;24.754;2024-01-10T02:47:11;101045.50;;;0.34;100.00
64616;BME280;51027;42.162;24.754;2024-01-10T02:49:37;101039.06;;;0.18;100.00
64616;BME280;51027;42.162;24.754;2024-01-10T02:52:02;101050.78;;;0.38;100.00
64616;BME280;51027;42.162;24.754;2024-01-10T02:54:28;101045.72;;;0.43;100.00
64616;BME280;51027;42.162;24.754;2024-01-10T02:56:54;101045.72;;;0.43;100.00
64616;BME280;51027;42.162;24.754;2024-01-10T02:59:19;101045.63;;;0.04;100.00
64616;BME280;51027;42.162;24.754;2024-01-10T03:01:45;101051.13;;;0.17;100.00
64616;BME280;51027;42.162;24.754;2024-01-10T03:04:10;101042.56;;;0.20;100.00
64616;BME280;51027;42.162;24.754;2024-01-10T03:06:35;101040.03;;;0.21;100.00
64616;BME280;51027;42.162;24.754;2024-01-10T03:09:01;101030.81;;;-0.35;100.00
64616;BME280;51027;42.162;24.754;2024-01-10T03:11:27;101040.44;;;0.04;100.00
64616;BME280;51027;42.162;24.754;2024-01-10T03:14:09;101037.47;;;0.23;100.00
64616;BME280;51027;42.162;24.754;2024-01-10T03:16:35;101029.84;;;-0.40;100.00
64616;BME280;51027;42.162;24.754;2024-01-10T03:19:01;101018.50;;;-0.44;100.00
64616;BME280;51027;42.162;24.754;2024-01-10T03:21:26;101039.13;;;-0.47;100.00
64616;BME280;51027;42.162;24.754;2024-01-10T03:23:56;101035.09;;;-0.37;100.00
64616;BME280;51027;42.162;24.754;2024-01-10T03:26:23;101028.44;;;-0.27;100.00
64616;BME280;51027;42.162;24.754;2024-01-10T03:28:48;101034.03;;;-0.44;100.00
64616;BME280;51027;42.162;24.754;2024-01-10T03:31:14;101022.28;;;-0.64;100.00
64616;BME280;51027;42.162;24.754;2024-01-10T03:33:40;101014.63;;;-0.61;100.00
64616;BME280;51027;42.162;24.754;2024-01-10T03:36:06;101035.34;;;-0.60;100.00
64616;BME280;51027;42.162;24.754;2024-01-10T03:38:32;101040.28;;;-0.36;100.00
64616;BME280;51027;42.162;24.754;2024-01-10T03:40:57;101030.25;;;-0.56;100.00
64616;BME280;51027;42.162;24.754;2024-01-10T03:43:23;101037.78;;;-0.64;100.00
64616;BME280;51027;42.162;24.754;2024-01-10T03:45:48;101041.41;;;-0.59;100.00
64616;BME280;51027;42.162;24.754;2024-01-10T03:48:14;101039.00;;;-0.51;100.00
64616;BME280;51027;42.162;24.754;2024-01-10T03:50:40;101040.59;;;-0.56;100.00
64616;BME280;51027;42.162;24.754;2024-01-10T03:53:05;101031.22;;;-0.51;100.00
64616;BME280;51027;42.162;24.754;2024-01-10T03:55:31;101033.09;;;-0.47;100.00
64616;BME280;51027;42.162;24.754;2024-01-10T03:57:57;101036.84;;;-0.36;100.00
64616;BME280;51027;42.162;24.754;2024-01-10T04:00:22;101037.78;;;-0.33;100.00
64616;BME280;51027;42.162;24.754;2024-01-10T04:02:48;101023.19;;;-0.62;100.00
64616;BME280;51027;42.162;24.754;2024-01-10T04:05:13;101031.19;;;-0.53;100.00
64616;BME280;51027;42.162;24.754;2024-01-10T04:07:40;101042.38;;;-0.54;100.00
64616;BME280;51027;42.162;24.754;2024-01-10T04:10:10;101049.84;;;-0.33;100.00
64616;BME280;51027;42.162;24.754;2024-01-10T04:12:38;101032.47;;;-0.39;100.00
64616;BME280;51027;42.162;24.754;2024-01-10T04:15:05;101036.25;;;-0.57;100.00
64616;BME280;51027;42.162;24.754;2024-01-10T04:17:30;101040.78;;;-0.50;100.00
64616;BME280;51027;42.162;24.754;2024-01-10T04:19:56;101036.75;;;-0.39;100.00
64616;BME280;51027;42.162;24.754;2024-01-10T04:22:23;101052.16;;;-0.44;100.00
64616;BME280;51027;42.162;24.754;2024-01-10T04:24:49;101051.97;;;-0.18;100.00
64616;BME280;51027;42.162;24.754;2024-01-10T04:27:15;101037.63;;;-0.39;100.00
64616;BME280;51027;42.162;24.754;2024-01-10T04:29:41;101058.31;;;-0.40;100.00
64616;BME280;51027;42.162;24.754;2024-01-10T04:32:07;101064.81;;;-0.21;100.00
64616;BME280;51027;42.162;24.754;2024-01-10T04:34:32;101032.91;;;-0.53;100.00
64616;BME280;51027;42.162;24.754;2024-01-10T04:36:58;101052.59;;;-0.60;100.00
64616;BME280;51027;42.162;24.754;2024-01-10T04:39:23;101060.69;;;-0.48;100.00
64616;BME280;51027;42.162;24.754;2024-01-10T04:41:49;101068.25;;;-0.22;100.00
64616;BME280;51027;42.162;24.754;2024-01-10T04:44:14;101049.47;;;-0.47;100.00
64616;BME280;51027;42.162;24.754;2024-01-10T04:46:40;101072.31;;;-0.32;100.00
64616;BME280;51027;42.162;24.754;2024-01-10T04:49:06;101082.41;;;-0.10;100.00
64616;BME280;51027;42.162;24.754;2024-01-10T04:51:32;101087.03;;;0.02;100.00
64616;BME280;51027;42.162;24.754;2024-01-10T04:53:57;101075.94;;;0.08;100.00
64616;BME280;51027;42.162;24.754;2024-01-10T04:56:23;101086.91;;;-0.03;100.00
64616;BME280;51027;42.162;24.754;2024-01-10T04:58:48;101083.31;;;-0.08;100.00
64616;BME280;51027;42.162;24.754;2024-01-10T05:01:14;101064.13;;;-0.47;100.00
64616;BME280;51027;42.162;24.754;2024-01-10T05:03:40;101092.38;;;-0.23;100.00
64616;BME280;51027;42.162;24.754;2024-01-10T05:06:05;101097.75;;;-0.17;100.00
64616;BME280;51027;42.162;24.754;2024-01-10T05:08:31;101102.59;;;-0.30;100.00
64616;BME280;51027;42.162;24.754;2024-01-10T05:10:57;101098.75;;;-0.11;100.00
64616;BME280;51027;42.162;24.754;2024-01-10T05:13:22;101094.66;;;-0.03;100.00
64616;BME280;51027;42.162;24.754;2024-01-10T05:15:48;101090.59;;;-0.26;100.00
64616;BME280;51027;42.162;24.754;2024-01-10T05:18:13;101109.34;;;-0.02;100.00
64616;BME280;51027;42.162;24.754;2024-01-10T05:20:39;101102.34;;;-0.39;100.00
64616;BME280;51027;42.162;24.754;2024-01-10T05:23:04;101099.91;;;-0.33;100.00
64616;BME280;51027;42.162;24.754;2024-01-10T05:25:30;101098.97;;;-0.35;100.00
64616;BME280;51027;42.162;24.754;2024-01-10T05:27:55;101091.50;;;-0.24;100.00
64616;BME280;51027;42.162;24.754;2024-01-10T05:30:21;101104.50;;;-0.22;100.00
64616;BME280;51027;42.162;24.754;2024-01-10T05:32:47;101101.31;;;-0.44;100.00
64616;BME280;51027;42.162;24.754;2024-01-10T05:35:12;101106.34;;;-0.18;100.00
64616;BME280;51027;42.162;24.754;2024-01-10T05:37:38;101111.00;;;-0.05;100.00
64616;BME280;51027;42.162;24.754;2024-01-10T05:40:04;101119.94;;;-0.25;100.00
64616;BME280;51027;42.162;24.754;2024-01-10T05:42:32;101116.31;;;-0.32;100.00
64616;BME280;51027;42.162;24.754;2024-01-10T05:44:59;101121.28;;;-0.08;100.00
64616;BME280;51027;42.162;24.754;2024-01-10T05:47:24;101120.44;;;-0.07;100.00
64616;BME280;51027;42.162;24.754;2024-01-10T05:49:51;101091.78;;;-0.13;100.00
64616;BME280;51027;42.162;24.754;2024-01-10T05:52:18;101085.63;;;-0.18;100.00
64616;BME280;51027;42.162;24.754;2024-01-10T05:54:44;101113.69;;;-0.01;100.00
64616;BME280;51027;42.162;24.754;2024-01-10T05:57:10;101117.22;;;0.02;100.00
64616;BME280;51027;42.162;24.754;2024-01-10T05:59:36;101116.19;;;-0.05;100.00
64616;BME280;51027;42.162;24.754;2024-01-10T06:02:02;101113.28;;;-0.17;100.00
64616;BME280;51027;42.162;24.754;2024-01-10T06:04:28;101114.22;;;-0.14;100.00
64616;BME280;51027;42.162;24.754;2024-01-10T06:06:58;101108.16;;;-0.14;100.00
64616;BME280;51027;42.162;24.754;2024-01-10T06:09:23;101123.06;;;-0.06;100.00
64616;BME280;51027;42.162;24.754;2024-01-10T06:11:49;101128.66;;;0.10;100.00
64616;BME280;51027;42.162;24.754;2024-01-10T06:14:15;101132.97;;;-0.22;100.00
64616;BME280;51027;42.162;24.754;2024-01-10T06:16:40;101138.88;;;0.04;100.00
64616;BME280;51027;42.162;24.754;2024-01-10T06:19:06;101137.75;;;-0.06;100.00
64616;BME280;51027;42.162;24.754;2024-01-10T06:21:31;101143.25;;;0.06;100.00
64616;BME280;51027;42.162;24.754;2024-01-10T06:23:57;101142.00;;;-0.08;100.00
64616;BME280;51027;42.162;24.754;2024-01-10T06:26:23;101146.16;;;-0.13;100.00
64616;BME280;51027;42.162;24.754;2024-01-10T06:28:48;101152.75;;;0.07;100.00
64616;BME280;51027;42.162;24.754;2024-01-10T06:31:14;101172.59;;;0.07;100.00
64616;BME280;51027;42.162;24.754;2024-01-10T06:33:39;101163.19;;;0.10;100.00
64616;BME280;51027;42.162;24.754;2024-01-10T06:36:05;101169.91;;;0.02;100.00
64616;BME280;51027;42.162;24.754;2024-01-10T06:38:30;101169.31;;;0.12;100.00
64616;BME280;51027;42.162;24.754;2024-01-10T06:40:56;101176.28;;;0.15;100.00
64616;BME280;51027;42.162;24.754;2024-01-10T06:43:21;101172.03;;;-0.15;100.00
64616;BME280;51027;42.162;24.754;2024-01-10T06:45:47;101178.13;;;-0.13;100.00
64616;BME280;51027;42.162;24.754;2024-01-10T06:48:13;101174.50;;;0.12;100.00
64616;BME280;51027;42.162;24.754;2024-01-10T06:50:40;101175.28;;;0.10;100.00
64616;BME280;51027;42.162;24.754;2024-01-10T06:53:05;101180.84;;;-0.08;100.00
64616;BME280;51027;42.162;24.754;2024-01-10T06:55:31;101180.25;;;-0.30;100.00
64616;BME280;51027;42.162;24.754;2024-01-10T06:57:56;101177.34;;;-0.10;100.00
64616;BME280;51027;42.162;24.754;2024-01-10T07:00:22;101166.22;;;-0.06;100.00
64616;BME280;51027;42.162;24.754;2024-01-10T07:02:49;101187.84;;;0.27;100.00
64616;BME280;51027;42.162;24.754;2024-01-10T07:05:15;101187.25;;;0.38;100.00
64616;BME280;51027;42.162;24.754;2024-01-10T07:07:41;101189.22;;;0.46;100.00
64616;BME280;51027;42.162;24.754;2024-01-10T07:10:07;101155.88;;;0.27;100.00
64616;BME280;51027;42.162;24.754;2024-01-10T07:12:34;101193.72;;;0.53;100.00
64616;BME280;51027;42.162;24.754;2024-01-10T07:15:00;101184.72;;;0.74;100.00
64616;BME280;51027;42.162;24.754;2024-01-10T07:17:25;101194.94;;;1.02;100.00
64616;BME280;51027;42.162;24.754;2024-01-10T07:19:51;101151.75;;;1.06;100.00
64616;BME280;51027;42.162;24.754;2024-01-10T07:22:16;101196.16;;;1.99;100.00
64616;BME280;51027;42.162;24.754;2024-01-10T07:24:45;101195.50;;;2.10;100.00
64616;BME280;51027;42.162;24.754;2024-01-10T07:27:11;101208.72;;;2.70;100.00
64616;BME280;51027;42.162;24.754;2024-01-10T07:29:40;101217.97;;;3.06;100.00
64616;BME280;51027;42.162;24.754;2024-01-10T07:32:06;101189.75;;;3.33;100.00
64616;BME280;51027;42.162;24.754;2024-01-10T07:34:35;101214.88;;;3.95;96.32
64616;BME280;51027;42.162;24.754;2024-01-10T07:37:00;101218.91;;;3.68;90.50
64616;BME280;51027;42.162;24.754;2024-01-10T07:39:26;101217.81;;;4.19;89.45
64616;BME280;51027;42.162;24.754;2024-01-10T07:41:51;101220.03;;;4.69;87.22
64616;BME280;51027;42.162;24.754;2024-01-10T07:44:17;101223.66;;;4.82;86.01
64616;BME280;51027;42.162;24.754;2024-01-10T07:46:42;101224.47;;;4.78;86.45
64616;BME280;51027;42.162;24.754;2024-01-10T07:49:08;101212.13;;;3.83;89.40
64616;BME280;51027;42.162;24.754;2024-01-10T07:51:33;101227.28;;;4.13;89.14
64616;BME280;51027;42.162;24.754;2024-01-10T07:53:59;101223.41;;;3.82;89.62
64616;BME280;51027;42.162;24.754;2024-01-10T07:56:25;101232.72;;;3.05;93.70
64616;BME280;51027;42.162;24.754;2024-01-10T07:58:50;101236.53;;;2.26;98.66
64616;BME280;51027;42.162;24.754;2024-01-10T08:01:17;101232.25;;;1.47;99.34
64616;BME280;51027;42.162;24.754;2024-01-10T08:03:43;101231.44;;;1.88;95.49
64616;BME280;51027;42.162;24.754;2024-01-10T08:06:08;101241.09;;;2.39;91.46
64616;BME280;51027;42.162;24.754;2024-01-10T08:08:35;101237.44;;;2.28;90.63
64616;BME280;51027;42.162;24.754;2024-01-10T08:11:01;101238.75;;;2.06;90.38
64616;BME280;51027;42.162;24.754;2024-01-10T08:13:27;101223.50;;;1.82;90.81
64616;BME280;51027;42.162;24.754;2024-01-10T08:15:53;101249.53;;;2.26;87.73
64616;BME280;51027;42.162;24.754;2024-01-10T08:18:19;101245.00;;;2.16;87.42
64616;BME280;51027;42.162;24.754;2024-01-10T08:20:45;101238.16;;;2.68;83.88
64616;BME280;51027;42.162;24.754;2024-01-10T08:23:12;101245.47;;;2.42;85.50
64616;BME280;51027;42.162;24.754;2024-01-10T08:25:37;101237.66;;;2.40;86.45
64616;BME280;51027;42.162;24.754;2024-01-10T08:28:03;101240.31;;;2.93;87.34
64616;BME280;51027;42.162;24.754;2024-01-10T08:30:29;101242.59;;;2.73;83.27
64616;BME280;51027;42.162;24.754;2024-01-10T08:32:54;101239.28;;;2.83;82.83
64616;BME280;51027;42.162;24.754;2024-01-10T08:35:20;101247.03;;;3.32;77.60
64616;BME280;51027;42.162;24.754;2024-01-10T08:37:45;101243.97;;;3.04;75.89
64616;BME280;51027;42.162;24.754;2024-01-10T08:40:12;101241.41;;;3.65;72.37
64616;BME280;51027;42.162;24.754;2024-01-10T08:42:40;101227.91;;;4.72;69.06
64616;BME280;51027;42.162;24.754;2024-01-10T08:45:06;101221.38;;;5.23;65.53
64616;BME280;51027;42.162;24.754;2024-01-10T08:47:35;101215.59;;;5.82;62.32
64616;BME280;51027;42.162;24.754;2024-01-10T08:50:01;101206.91;;;5.83;60.42
64616;BME280;51027;42.162;24.754;2024-01-10T08:52:27;101216.50;;;5.83;60.42
64616;BME280;51027;42.162;24.754;2024-01-10T08:54:52;101231.16;;;5.55;59.37
64616;BME280;51027;42.162;24.754;2024-01-10T08:57:18;101217.56;;;6.27;58.67
64616;BME280;51027;42.162;24.754;2024-01-10T08:59:44;101213.13;;;4.74;62.55
64616;BME280;51027;42.162;24.754;2024-01-10T09:02:09;101226.63;;;5.31;61.84
64616;BME280;51027;42.162;24.754;2024-01-10T09:04:35;101208.72;;;4.67;63.22
64616;BME280;51027;42.162;24.754;2024-01-10T09:07:00;101225.97;;;4.53;63.25
64616;BME280;51027;42.162;24.754;2024-01-10T09:09:26;101219.66;;;5.28;61.03
64616;BME280;51027;42.162;24.754;2024-01-10T09:11:51;101222.47;;;4.51;62.70
64616;BME280;51027;42.162;24.754;2024-01-10T09:14:17;101216.22;;;4.35;63.57
64616;BME280;51027;42.162;24.754;2024-01-10T09:16:42;101216.97;;;4.25;65.82
64616;BME280;51027;42.162;24.754;2024-01-10T09:19:08;101213.13;;;4.71;65.26
64616;BME280;51027;42.162;24.754;2024-01-10T09:21:35;101213.69;;;5.47;64.10
64616;BME280;51027;42.162;24.754;2024-01-10T09:24:00;101213.22;;;6.42;60.63
64616;BME280;51027;42.162;24.754;2024-01-10T09:26:26;101209.78;;;7.30;57.87
64616;BME280;51027;42.162;24.754;2024-01-10T09:28:51;101205.09;;;8.16;55.25
64616;BME280;51027;42.162;24.754;2024-01-10T09:31:17;101201.09;;;8.98;53.03
64616;BME280;51027;42.162;24.754;2024-01-10T09:33:42;101201.59;;;9.38;52.47
64616;BME280;51027;42.162;24.754;2024-01-10T09:36:08;101203.16;;;8.56;55.93
64616;BME280;51027;42.162;24.754;2024-01-10T09:38:36;101202.81;;;7.26;59.18
64616;BME280;51027;42.162;24.754;2024-01-10T09:41:05;101192.13;;;9.23;56.57
64616;BME280;51027;42.162;24.754;2024-01-10T09:43:31;101188.59;;;10.01;54.13
64616;BME280;51027;42.162;24.754;2024-01-10T09:46:00;101192.16;;;10.63;53.84
64616;BME280;51027;42.162;24.754;2024-01-10T09:48:27;101193.41;;;10.37;53.96
64616;BME280;51027;42.162;24.754;2024-01-10T09:50:54;101184.78;;;5.23;66.28
64616;BME280;51027;42.162;24.754;2024-01-10T09:53:24;101188.66;;;4.61;75.04
64616;BME280;51027;42.162;24.754;2024-01-10T09:55:50;101152.81;;;5.67;72.63
64616;BME280;51027;42.162;24.754;2024-01-10T09:58:16;101188.13;;;9.67;59.34
64616;BME280;51027;42.162;24.754;2024-01-10T10:00:41;101179.34;;;10.94;57.43
64616;BME280;51027;42.162;24.754;2024-01-10T10:03:10;101179.38;;;8.74;56.92
64616;BME280;51027;42.162;24.754;2024-01-10T10:05:38;101170.50;;;7.07;68.12
64616;BME280;51027;42.162;24.754;2024-01-10T10:08:07;101152.47;;;10.72;56.19
64616;BME280;51027;42.162;24.754;2024-01-10T10:10:33;101164.09;;;9.20;60.23
64616;BME280;51027;42.162;24.754;2024-01-10T10:12:58;101151.59;;;8.49;59.50
64616;BME280;51027;42.162;24.754;2024-01-10T10:15:25;101160.00;;;6.30;69.79
64616;BME280;51027;42.162;24.754;2024-01-10T10:17:54;101158.94;;;5.78;70.21
64616;BME280;51027;42.162;24.754;2024-01-10T10:23:08;101160.88;;;7.01;61.84
64616;BME280;51027;42.162;24.754;2024-01-10T10:25:42;101156.41;;;3.71;74.44
64616;BME280;51027;42.162;24.754;2024-01-10T10:28:08;101150.50;;;3.86;76.18
64616;BME280;51027;42.162;24.754;2024-01-10T10:30:34;101141.78;;;8.71;60.04
64616;BME280;51027;42.162;24.754;2024-01-10T10:33:00;101136.38;;;7.39;63.21
64616;BME280;51027;42.162;24.754;2024-01-10T10:35:26;101148.28;;;5.32;67.23
64616;BME280;51027;42.162;24.754;2024-01-10T10:37:52;101147.81;;;6.34;64.74
64616;BME280;51027;42.162;24.754;2024-01-10T10:40:20;101138.19;;;8.82;59.57
64616;BME280;51027;42.162;24.754;2024-01-10T10:42:48;101131.75;;;9.88;54.77
64616;BME280;51027;42.162;24.754;2024-01-10T10:45:16;101128.84;;;12.79;47.71
64616;BME280;51027;42.162;24.754;2024-01-10T10:47:44;101119.72;;;12.91;45.10
64616;BME280;51027;42.162;24.754;2024-01-10T10:50:20;101124.09;;;13.26;43.99
64616;BME280;51027;42.162;24.754;2024-01-10T10:52:46;101115.06;;;12.65;45.16
64616;BME280;51027;42.162;24.754;2024-01-10T10:55:16;101104.63;;;12.23;45.28
64616;BME280;51027;42.162;24.754;2024-01-10T10:57:46;101094.13;;;10.41;48.55
64616;BME280;51027;42.162;24.754;2024-01-10T11:00:18;101106.78;;;10.72;49.88
64616;BME280;51027;42.162;24.754;2024-01-10T11:02:44;101103.31;;;12.77;45.73
64616;BME280;51027;42.162;24.754;2024-01-10T11:05:11;101106.50;;;12.20;45.77
64616;BME280;51027;42.162;24.754;2024-01-10T11:07:41;101101.06;;;14.18;41.90
64616;BME280;51027;42.162;24.754;2024-01-10T11:10:13;101093.00;;;12.67;43.49
64616;BME280;51027;42.162;24.754;2024-01-10T11:18:21;101088.47;;;8.56;51.45
64616;BME280;51027;42.162;24.754;2024-01-10T11:23:37;101088.59;;;10.58;46.18
64616;BME280;51027;42.162;24.754;2024-01-10T11:26:04;101090.75;;;11.32;45.01
64616;BME280;51027;42.162;24.754;2024-01-10T11:28:33;101079.06;;;8.26;51.38
64616;BME280;51027;42.162;24.754;2024-01-10T11:30:59;101080.97;;;8.04;52.19
64616;BME280;51027;42.162;24.754;2024-01-10T11:33:32;101081.50;;;6.67;58.05
64616;BME280;51027;42.162;24.754;2024-01-10T11:36:20;101068.28;;;7.23;57.42
64616;BME280;51027;42.162;24.754;2024-01-10T11:38:54;101070.69;;;7.71;55.68
64616;BME280;51027;42.162;24.754;2024-01-10T11:41:31;101062.28;;;10.56;49.72
64616;BME280;51027;42.162;24.754;2024-01-10T11:44:26;101065.28;;;13.15;44.32
64616;BME280;51027;42.162;24.754;2024-01-10T11:46:53;101031.91;;;13.11;42.65
64616;BME280;51027;42.162;24.754;2024-01-10T11:49:23;101055.91;;;11.16;48.12
64616;BME280;51027;42.162;24.754;2024-01-10T11:51:52;101046.00;;;10.84;47.71
64616;BME280;51027;42.162;24.754;2024-01-10T11:54:36;101054.16;;;9.53;51.61
64616;BME280;51027;42.162;24.754;2024-01-10T11:57:03;101043.19;;;10.91;48.73
64616;BME280;51027;42.162;24.754;2024-01-10T11:59:32;101037.50;;;11.13;48.26
64616;BME280;51027;42.162;24.754;2024-01-10T12:01:58;101029.78;;;11.47;46.11
64616;BME280;51027;42.162;24.754;2024-01-10T12:04:24;101040.56;;;9.19;51.00
64616;BME280;51027;42.162;24.754;2024-01-10T12:06:55;101034.91;;;11.11;48.26
64616;BME280;51027;42.162;24.754;2024-01-10T12:09:21;101017.41;;;12.26;45.46
64616;BME280;51027;42.162;24.754;2024-01-10T12:11:46;101026.28;;;11.87;45.66
64616;BME280;51027;42.162;24.754;2024-01-10T12:14:14;101027.94;;;10.07;48.34
64616;BME280;51027;42.162;24.754;2024-01-10T12:16:40;101030.81;;;6.99;56.06
64616;BME280;51027;42.162;24.754;2024-01-10T12:19:06;101026.13;;;7.68;56.36
64616;BME280;51027;42.162;24.754;2024-01-10T12:21:31;101010.47;;;7.54;55.42
64616;BME280;51027;42.162;24.754;2024-01-10T12:23:57;101022.16;;;6.63;57.05
64616;BME280;51027;42.162;24.754;2024-01-10T12:26:23;101019.56;;;6.32;60.67
64616;BME280;51027;42.162;24.754;2024-01-10T12:31:21;100998.56;;;10.82;50.21
64616;BME280;51027;42.162;24.754;2024-01-10T12:33:51;101012.66;;;10.80;48.62
64616;BME280;51027;42.162;24.754;2024-01-10T12:36:18;101010.44;;;12.56;45.72
64616;BME280;51027;42.162;24.754;2024-01-10T12:38:44;100999.22;;;15.26;40.52
64616;BME280;51027;42.162;24.754;2024-01-10T12:41:14;101003.28;;;15.37;38.34
64616;BME280;51027;42.162;24.754;2024-01-10T12:43:40;101001.38;;;15.17;39.00
64616;BME280;51027;42.162;24.754;2024-01-10T12:46:12;101008.44;;;17.70;35.50
64616;BME280;51027;42.162;24.754;2024-01-10T12:48:39;100998.69;;;17.69;34.42